Miguel Ángel Rodríguez

Olheiro-Chefe - Boca Juniors
9 Set 2027
Quinta-feira
Processo

Personalidade

Adaptabilidade (3) Ambição (5) Controvérsia (2) Lealdade (17) Pressão (9) Profissionalismo (8) Espírito Esportivo (11) Temperamento (20)

Perfil

Estilo de Treinamento Democrático
Licença Continental B
Determinação 9
Gestão de Pessoas 13
Motivação 13
Disciplina 11
Satisfação no Trabalho
73%
Fadiga
0%
Função Olheiro-Chefe
Salário 32.9K p/s
Contrato 14.03.2030

Desempenho

Comportamento Bom
Eficácia do Treinamento
57%
Desenvolvimento do Jogador
60%
Prevenção de Lesões
60%
Implementação Tática
75%

Eventos Recentes

Avaliou um jogador agora
Participou de uma reunião de recrutamento agora
Recomendou um alvo de transferência agora
Recomendou um alvo de transferência agora
Recomendou um alvo de transferência agora
Recomendou um alvo de transferência agora
Avaliou um jogador 7d atrás
Avaliou um jogador 7d atrás

Monitorando agora

88
Jogador Clube Status Habilidade Confiança Observado Última observação Último voto
Lorenzo Palmisani Frosinone Ativo 137 / 137 40% 8 06.09.2027 -
Ander Astralaga Real Sociedad Ativo 133 / 135 40% 2 06.09.2027 -
Stefano Turati Sassuolo Ativo 138 / 145 40% 2 06.09.2027 -
Iván Villar Villarreal Ativo 127 / 131 40% 1 04.09.2027 -
Jamie Cumming Oxford United Ativo 141 / 139 40% 1 04.09.2027 -
Mike Penders Chelsea Ativo 135 / 141 40% 11 03.09.2027 -
Alexandr Maximenko Rubin Ativo 142 / 124 40% 5 03.09.2027 -
Daniel Peretz Bayern Munich Ativo 138 / 145 40% 15 31.08.2027 -
Justin Bijlow Genoa Ativo 161 / 151 40% 1 31.08.2027 -
Matheo Raab Union Berlin Ativo 128 / 136 40% 3 30.08.2027 -
Marek Rodák Malmo FF Ativo 125 / 135 40% 1 28.08.2027 -
Andriy Lunin Real Madrid Ativo 163 / 169 40% 1 27.08.2027 -
Carl Rushworth Bayer Leverkusen Ativo 148 / 148 40% 2 22.08.2027 -
Sol Brynn Krasnodar Ativo 121 / 139 40% 1 19.08.2027 -
Cristian Rivero Valencia Ativo 126 / 137 40% 1 10.08.2027 -
Álvaro Fernández Mallorca Ativo 139 / 135 40% 6 09.08.2027 -
Dani Cárdenas Espanyol Ativo 125 / 142 40% 4 08.08.2027 -
Jacob Widell Zetterström Derby County Ativo 124 / 134 40% 1 07.08.2027 -
Arnaud Bodart OGC Nice Ativo 124 / 140 40% 3 04.08.2027 -
Orlando Gill LOSC Lille Ativo 120 / 139 40% 2 13.07.2027 -
Elia Caprile Newcastle United Ativo 136 / 142 40% 1 11.07.2027 -
Áron Yaakobishvili Barcelona Ativo 118 / 122 40% 1 07.07.2027 -
Gustavo Del Prete San Lorenzo Ativo 116 / 112 65% 1 05.07.2027 Aprovar
Marvin Keller Bayer Leverkusen Ativo 144 / 155 40% 6 04.07.2027 -
Emil Audero Como Ativo 129 / 126 40% 1 02.07.2027 -
Vítězslav Jaroš Liverpool Ativo 138 / 134 40% 1 02.07.2027 -
Diego Mascardi Betis Ativo 122 / 129 40% 5 25.06.2027 -
Marcelino Moreno Lanús Ativo 136 / 121 65% 1 21.06.2027 Aprovar
Diego Enríquez Osasuna Ativo 136 / 139 40% 1 14.06.2027 -
Facundo Cambeses Racing Club Ativo 123 / 122 40% 3 09.06.2027 -
Valente Pierani Estudiantes Ativo 117 / 115 65% 1 03.06.2027 Aprovar
Alexis Cuello San Lorenzo Ativo 132 / 126 65% 1 02.06.2027 Aprovar
Bitello SC Freiburg Ativo 135 / 135 68% 1 01.06.2027 Aprovar
Mateus Mané Manchester United Ativo 129 / 134 40% 4 24.05.2027 -
Diogo Costa Manchester City Ativo 169 / 164 40% 2 16.05.2027 -
Christian Krasnodar Ativo 123 / 124 40% 1 05.05.2027 -
Wendel Zenit Perdido 148 / 132 40% 2 25.04.2027 -
Ngal'Ayel Mukau Paris Saint-Germain Ativo 127 / 141 40% 2 25.04.2027 -
Maxime Estève RB Leipzig Ativo 129 / 132 40% 3 17.04.2027 -
Christ Inao Oulaï Fiorentina Ativo 140 / 133 40% 1 11.04.2027 -
Rayan Bournemouth Ativo 125 / 135 40% 1 21.03.2027 -
Finn Jeltsch VfB Stuttgart Ativo 136 / 137 40% 1 04.03.2027 -
Yves Bissouma Tottenham Ativo 143 / 150 40% 2 29.01.2027 -
Josh King Chelsea Ativo 138 / 139 40% 1 29.01.2027 -
Yussif Saidu Zaragoza Ativo 124 / 128 40% 1 26.01.2027 -
Jofre Torrents Ajax Ativo 113 / 126 40% 1 20.01.2027 -
Juan David Cabal Juventus Ativo 145 / 143 40% 2 19.01.2027 -
Santiago Sosa Yung Sevilla Ativo 114 / 138 40% 1 08.01.2027 -
Julián Quiñones Lokomotiv Moscow Ativo 135 / 155 40% 13 07.01.2027 -
Bento Al-Nassr Ativo 126 / 132 40% 1 28.12.2026 -
Enzo Copetti Rosario Central Ativo 119 / 122 65% 1 02.12.2026 Aprovar
Toni Fruk KV Mechelen Negociando 132 / 133 66% 1 01.12.2026 Aprovar
Matheus Gonçalves Al-Ahli Ativo 123 / 126 40% 2 25.11.2026 -
Oscar Al-Taawoun Ativo 137 / 140 40% 9 15.11.2026 Observar
Brais Méndez Columbus Crew Ativo 140 / 150 40% 17 14.11.2026 Observar
Galeno Al-Ahli Ativo 135 / 152 40% 4 01.11.2026 -
Djed Spence Inter Ativo 143 / 148 40% 1 30.10.2026 Mais informações
Walid Ismail Al Shabab Ativo 134 / 132 40% 1 27.10.2026 -
Steven Bergwijn Al-Ittihad Ativo 134 / 155 40% 5 23.10.2026 -
Ibrahim Maza Bayer Leverkusen Ativo 131 / 157 40% 3 22.10.2026 -
Razvan Balasa Crvena Zvezda Ativo 133 / 154 40% 7 18.10.2026 -
Kirill Glebov CSKA Moscow Ativo 113 / 125 40% 1 16.10.2026 -
Francisco Trincão Zenit Ativo 142 / 165 40% 7 15.10.2026 -
Barış Alper Yılmaz Galatasaray Ativo 141 / 150 40% 4 15.10.2026 -
Christos Mouzakitis Hull City Ativo 131 / 142 40% 1 14.10.2026 -
Senny Mayulu Paris Saint-Germain Ativo 128 / 152 40% 1 12.10.2026 -
Endrick Real Madrid Ativo 144 / 152 40% 1 11.10.2026 -
Mattéo Guendouzi Fenerbahce Ativo 137 / 159 40% 11 07.10.2026 -
Rodrigo Mora AS Roma Ativo 127 / 149 40% 1 07.10.2026 -
Francesco Pio Esposito Inter Ativo 132 / 143 40% 2 06.10.2026 -
Luiz Júnior TSG Hoffenheim Ativo 144 / 148 40% 1 28.09.2026 -
Sam Beukema Napoli Ativo 160 / 142 40% 1 28.09.2026 -
Robert FC Copenhagen Ativo 133 / 125 40% 1 25.09.2026 -
Gabriel Jesus Barcelona Ativo 142 / 154 40% 13 22.09.2026 -
Jan Virgili Club Brugge Ativo 123 / 136 40% 1 20.09.2026 -
Théo Hernández Al-Hilal Ativo 155 / 158 40% 4 16.09.2026 -
Orkun Kökçü Besiktas Ativo 139 / 156 40% 2 16.09.2026 -
Kauã Elias Anderlecht Ativo 137 / 144 40% 1 16.09.2026 -
Samú Al-Nassr Ativo 136 / 157 40% 1 26.08.2026 -
William Gomes Porto Ativo 126 / 142 40% 1 13.08.2026 -
Victor Froholdt Porto Ativo 135 / 144 40% 1 10.08.2026 -
Iván Fresneda Sporting CP Ativo 125 / 152 40% 1 10.08.2026 -
Valentin Atangana Al-Ahli Ativo 118 / 123 40% 1 09.08.2026 -
Rúben Neves Al-Hilal Ativo 139 / 153 40% 1 06.08.2026 -
Noah Sadiki Sunderland Ativo 134 / 135 40% 1 05.08.2026 -
Callum Hudson-Odoi Nottingham Forest Ativo 148 / 138 40% 1 05.08.2026 -
Stefanos Tzimas Brighton Ativo 134 / 149 40% 1 03.08.2026 -
James Maddison Tottenham Ativo 167 / 163 40% 1 01.08.2026 -